Time;durP1;ratioP1;P1;durP2;ratioP2;P2;SDS_P1;SDS_P2;PMS_P1;PMS_P2;Temp;Humidity;BMP_temperature;BMP_pressure;BME280_temperature;BME280_humidity;BME280_pressure;Samples;Min_cycle;Max_cycle;Signal;HPM_P1;HPM_P2
2023/01/09 00:01:36;;;;;;;1.07;1.07;;;;;6.50;94263.00;;;;5032415;28;20243;-59
2023/01/09 00:04:04;;;;;;;0.90;0.90;;;;;6.50;94270.00;;;;5035961;28;20637;-58
2023/01/09 00:06:32;;;;;;;1.17;1.17;;;;;6.40;94261.00;;;;5036384;28;20223;-58
2023/01/09 00:08:59;;;;;;;0.70;0.70;;;7.30;99.90;6.50;94266.00;;;;5036525;28;20192;-59
2023/01/09 00:11:26;;;;;;;0.77;0.77;;;;;6.50;94264.00;;;;5035906;28;20215;-58
2023/01/09 00:13:54;;;;;;;0.60;0.60;;;;;6.40;94265.00;;;;5036179;28;20659;-57
2023/01/09 00:16:21;;;;;;;0.70;0.70;;;;;6.40;94266.00;;;;5035789;28;20258;-58
2023/01/09 00:18:52;;;;;;;1.20;1.20;;;;;6.40;94269.00;;;;5036103;28;20207;-57
2023/01/09 00:21:20;;;;;;;0.60;0.60;;;;;6.40;94273.00;;;;5036318;28;20185;-58
2023/01/09 00:23:47;;;;;;;0.80;0.80;;;;;6.50;94257.00;;;;5036000;28;20311;-58
2023/01/09 00:26:16;;;;;;;0.77;0.77;;;;;6.50;94259.00;;;;5035605;28;20197;-58
2023/01/09 00:28:44;;;;;;;0.80;0.70;;;;;6.40;94274.00;;;;5035680;28;20236;-58
2023/01/09 00:31:12;;;;;;;1.13;1.10;;;;;6.40;94271.00;;;;5035727;28;20220;-58
2023/01/09 00:33:42;;;;;;;0.80;0.80;;;;;6.40;94265.00;;;;5035567;28;20197;-58
2023/01/09 00:36:12;;;;;;;0.93;0.93;;;;;6.50;94267.00;;;;5035415;28;20247;-58
2023/01/09 00:38:40;;;;;;;0.87;0.87;;;;;6.50;94261.00;;;;5035484;28;20274;-59
2023/01/09 00:41:10;;;;;;;0.93;0.93;;;;;6.50;94248.00;;;;5035646;28;20250;-58
2023/01/09 00:43:42;;;;;;;0.87;0.87;;;;;6.70;94252.00;;;;5035364;28;20196;-58
2023/01/09 00:46:11;;;;;;;1.13;1.13;;;;;6.70;94264.00;;;;5035782;28;20189;-59
2023/01/09 00:48:41;;;;;;;1.00;1.00;;;;;6.70;94265.00;;;;5035632;28;20199;-58
2023/01/09 00:51:10;;;;;;;0.77;0.77;;;;;6.60;94249.00;;;;5035500;28;20566;-58
2023/01/09 00:53:39;;;;;;;0.57;0.57;;;;;6.50;94253.00;;;;5035463;28;20196;-58
2023/01/09 00:56:10;;;;;;;0.67;0.67;;;;;6.60;94249.00;;;;5035339;28;20274;-58
2023/01/09 00:58:37;;;;;;;0.60;0.60;;;;;6.60;94257.00;;;;5035875;28;20187;-58
2023/01/09 01:01:06;;;;;;;0.93;0.93;;;;;6.60;94249.00;;;;5033782;28;20249;-58
2023/01/09 01:03:33;;;;;;;0.80;0.80;;;;;6.60;94248.00;;;;5033794;28;20679;-58
2023/01/09 01:08:47;;;;;;;0.63;0.63;;;;;6.50;94244.00;;;;5035255;28;20192;-58
2023/01/09 01:11:15;;;;;;;0.63;0.63;;;;;6.60;94240.00;;;;5035077;28;20222;-59
2023/01/09 01:13:43;;;;;;;0.70;0.70;;;;;6.40;94234.00;;;;5034274;28;20239;-59
2023/01/09 01:16:12;;;;;;;0.70;0.70;;;;;6.50;94237.00;;;;5034681;28;20263;-59
2023/01/09 01:18:40;;;;;;;0.60;0.60;;;7.10;99.90;6.40;94245.00;;;;5034813;28;20196;-59
2023/01/09 01:21:09;;;;;;;0.50;0.50;;;7.20;99.90;6.50;94252.00;;;;5034699;28;20210;-59
2023/01/09 01:23:37;;;;;;;0.80;0.80;;;;;6.40;94237.00;;;;5034696;28;20188;-59
2023/01/09 01:26:08;;;;;;;0.60;0.60;;;;;6.60;94239.00;;;;5034563;28;20754;-60
2023/01/09 01:28:35;;;;;;;0.50;0.50;;;;;6.50;94238.00;;;;5034887;28;20266;-59
2023/01/09 01:31:03;;;;;;;0.50;0.50;;;;;6.40;94237.00;;;;5034687;28;20216;-59
2023/01/09 01:33:30;;;;;;;0.60;0.60;;;;;6.40;94234.00;;;;5034500;28;20214;-59
2023/01/09 01:36:03;;;;;;;0.60;0.60;;;;;6.40;94235.00;;;;5034412;28;20200;-59
2023/01/09 01:38:30;;;;;;;0.67;0.67;;;;;6.40;94233.00;;;;5034404;28;20211;-60
2023/01/09 01:40:58;;;;;;;0.70;0.70;;;;;6.40;94231.00;;;;5034853;28;20191;-60
2023/01/09 01:43:27;;;;;;;0.73;0.73;;;;;6.50;94229.00;;;;5034450;28;20200;-59
2023/01/09 01:45:55;;;;;;;0.67;0.67;;;;;6.50;94234.00;;;;5034829;28;20242;-59
2023/01/09 01:48:26;;;;;;;0.60;0.60;;;;;6.50;94237.00;;;;5034178;28;20273;-60
2023/01/09 01:50:58;;;;;;;0.67;0.67;;;;;6.50;94249.00;;;;5034375;28;20205;-59
2023/01/09 01:53:31;;;;;;;0.87;0.87;;;;;6.40;94249.00;;;;5034362;28;20198;-59
2023/01/09 01:56:16;;;;;;;0.70;0.70;;;;;6.50;94251.00;;;;5034285;28;20251;-59
2023/01/09 01:58:49;;;;;;;0.50;0.50;;;;;6.40;94262.00;;;;5034053;28;20251;-59
2023/01/09 02:01:17;;;;;;;0.47;0.47;;;;;6.40;94257.00;;;;5033967;28;20235;-59
2023/01/09 02:03:45;;;;;;;0.70;0.70;;;;;6.40;94254.00;;;;5034131;28;20242;-59
2023/01/09 02:06:13;;;;;;;0.50;0.50;;;;;6.20;94258.00;;;;5034526;28;20256;-58
2023/01/09 02:08:41;;;;;;;0.50;0.50;;;;;6.40;94249.00;;;;5034613;28;20265;-58
2023/01/09 02:11:08;;;;;;;0.60;0.60;;;;;6.20;94242.00;;;;5033938;28;20213;-58
2023/01/09 02:13:39;;;;;;;0.50;0.50;;;;;6.20;94239.00;;;;5033962;28;20660;-58
2023/01/09 02:16:27;;;;;;;0.80;0.80;;;;;6.20;94245.00;;;;5033842;28;20185;-58
2023/01/09 02:19:06;;;;;;;0.70;0.70;;;;;6.40;94237.00;;;;5033621;28;20188;-58
2023/01/09 02:21:43;;;;;;;0.70;0.70;;;;;6.20;94228.00;;;;5033849;28;20617;-58
2023/01/09 02:24:39;;;;;;;0.70;0.70;;;;;6.30;94237.00;;;;5032344;28;20191;-58
2023/01/09 02:27:40;;;;;;;0.60;0.60;;;;;6.20;94240.00;;;;5033884;28;20220;-58
2023/01/09 02:30:31;;;;;;;0.60;0.60;;;;;6.10;94248.00;;;;5033519;28;20184;-58
2023/01/09 02:33:21;;;;;;;0.60;0.60;;;;;6.20;94258.00;;;;5033696;28;20698;-59
2023/01/09 02:36:01;;;;;;;0.80;0.80;;;;;6.00;94263.00;;;;5033946;28;20183;-58
2023/01/09 02:38:35;;;;;;;0.60;0.60;;;;;6.20;94263.00;;;;5033375;28;20264;-58
2023/01/09 02:41:08;;;;;;;0.60;0.60;;;;;6.20;94263.00;;;;5033888;28;20226;-58
2023/01/09 02:43:35;;;;;;;0.50;0.50;;;7.00;99.90;6.20;94261.00;;;;5033355;28;20181;-58
2023/01/09 02:46:04;;;;;;;0.60;0.60;;;;;6.10;94268.00;;;;5033646;28;20212;-59
2023/01/09 02:48:32;;;;;;;0.57;0.57;;;;;6.10;94269.00;;;;5033268;28;20196;-58
2023/01/09 02:51:09;;;;;;;0.70;0.70;;;;;6.10;94257.00;;;;5033470;28;20689;-58
2023/01/09 02:53:54;;;;;;;0.60;0.60;;;;;6.10;94267.00;;;;5033456;28;20187;-58
2023/01/09 02:56:43;;;;;;;0.50;0.50;;;;;6.00;94277.00;;;;5032954;28;20295;-58
2023/01/09 02:59:26;;;;;;;0.67;0.67;;;;;6.10;94271.00;;;;5033875;28;20227;-58
2023/01/09 03:02:08;;;;;;;0.57;0.57;;;;;6.30;94261.00;;;;5033336;28;20580;-58
2023/01/09 03:04:42;;;;;;;0.60;0.60;;;;;6.40;94275.00;;;;5033193;28;20178;-58
2023/01/09 03:07:20;;;;;;;0.60;0.60;;;;;6.40;94282.00;;;;5033492;28;20222;-58
2023/01/09 03:09:50;;;;;;;0.53;0.53;;;;;6.20;94289.00;;;;5033122;28;20190;-58
2023/01/09 03:12:21;;;;;;;0.60;0.60;;;;;6.20;94279.00;;;;5033482;28;20244;-58
2023/01/09 03:14:53;;;;;;;0.60;0.60;;;;;6.10;94266.00;;;;5032902;28;20185;-58
2023/01/09 03:17:27;;;;;;;0.60;0.60;;;;;6.00;94277.00;;;;5033119;28;20603;-58
2023/01/09 03:19:56;;;;;;;0.60;0.60;;;;;5.90;94278.00;;;;5033220;28;20184;-59
2023/01/09 03:22:24;;;;;;;0.60;0.60;;;;;5.90;94296.00;;;;5033098;28;20526;-58
2023/01/09 03:24:51;;;;;;;0.60;0.60;;;;;5.80;94307.00;;;;5032854;28;20739;-58
2023/01/09 03:27:19;;;;;;;0.60;0.60;;;;;5.90;94314.00;;;;5032879;28;20216;-58
2023/01/09 03:29:46;;;;;;;0.60;0.60;;;;;5.90;94309.00;;;;5032810;28;20224;-58
2023/01/09 03:32:14;;;;;;;0.67;0.67;;;;;6.00;94331.00;;;;5032934;28;20222;-58
2023/01/09 03:34:43;;;;;;;0.57;0.57;;;;;5.90;94332.00;;;;5032795;28;20193;-58
2023/01/09 03:37:10;;;;;;;0.60;0.60;;;;;6.00;94359.00;;;;5033048;28;20271;-58
2023/01/09 03:39:37;;;;;;;0.60;0.60;;;;;6.10;94378.00;;;;5036561;28;20250;-58
2023/01/09 03:42:05;;;;;;;0.60;0.60;;;;;5.80;94373.00;;;;5036777;28;20274;-58
2023/01/09 03:44:33;;;;;;;0.60;0.60;;;;;5.60;94394.00;;;;5036536;28;20196;-58
2023/01/09 03:47:00;;;;;;;0.60;0.60;;;;;5.40;94422.00;;;;5036651;28;20622;-58
2023/01/09 03:49:27;;;;;;;0.60;0.60;;;;;5.20;94389.00;;;;5036369;28;20197;-57
2023/01/09 03:51:56;;;;;;;0.73;0.73;;;;;5.10;94427.00;;;;5034979;28;20222;-57
2023/01/09 03:54:24;;;;;;;0.60;0.60;;;;;5.00;94406.00;;;;5036531;28;20656;-57
2023/01/09 03:56:51;;;;;;;0.60;0.60;;;;;5.10;94425.00;;;;5036066;28;20228;-58
2023/01/09 03:59:19;;;;;;;0.70;0.70;;;;;4.80;94427.00;;;;5036295;28;20544;-59
2023/01/09 04:01:46;;;;;;;0.60;0.60;;;;;4.80;94443.00;;;;5036676;28;20247;-58
2023/01/09 04:04:13;;;;;;;0.60;0.60;;;;;4.90;94410.00;;;;5036404;28;20275;-58
2023/01/09 04:06:41;;;;;;;0.50;0.50;;;;;4.80;94457.00;;;;5035976;28;20218;-58
2023/01/09 04:09:09;;;;;;;0.60;0.60;;;;;4.70;94457.00;;;;5036028;28;20199;-58
2023/01/09 04:11:37;;;;;;;0.60;0.60;;;;;4.70;94478.00;;;;5036163;28;20221;-58
2023/01/09 04:14:04;;;;;;;0.60;0.60;;;;;4.80;94495.00;;;;5035883;28;20196;-60
2023/01/09 04:16:32;;;;;;;0.60;0.60;;;;;4.80;94495.00;;;;5035806;28;20216;-58
2023/01/09 04:18:59;;;;;;;0.60;0.60;;;;;4.90;94487.00;;;;5036376;28;20263;-58
2023/01/09 04:21:26;;;;;;;0.50;0.50;;;;;4.70;94499.00;;;;5035716;28;20263;-58
2023/01/09 04:23:54;;;;;;;1.53;1.43;;;;;4.70;94512.00;;;;5035739;28;20259;-58
2023/01/09 04:26:23;;;;;;;0.60;0.60;;;;;4.70;94531.00;;;;5035664;28;20267;-58
2023/01/09 04:28:50;;;;;;;0.60;0.60;;;;;4.70;94518.00;;;;5035874;28;20200;-57
2023/01/09 04:31:17;;;;;;;0.60;0.60;;;;;4.80;94510.00;;;;5035542;28;20232;-58
2023/01/09 04:33:45;;;;;;;0.60;0.60;;;;;4.60;94503.00;;;;5035869;28;20205;-58
2023/01/09 04:36:13;;;;;;;0.70;0.70;;;;;4.80;94505.00;;;;5035423;28;20192;-58
2023/01/09 04:38:40;;;;;;;0.60;0.60;;;;;4.90;94541.00;;;;5035960;28;20200;-58
2023/01/09 04:41:08;;;;;;;0.60;0.60;;;;;4.80;94516.00;;;;5035591;28;20223;-58
2023/01/09 04:43:36;;;;;;;0.50;0.50;;;;;4.80;94524.00;;;;5035635;28;20196;-58
2023/01/09 04:46:04;;;;;;;0.60;0.60;;;;;4.80;94520.00;;;;5035190;28;20192;-58
2023/01/09 04:48:31;;;;;;;0.57;0.57;;;;;4.70;94512.00;;;;5034466;28;20206;-58
2023/01/09 04:50:59;;;;;;;0.67;0.67;;;;;4.80;94513.00;;;;5034996;28;20201;-57
2023/01/09 04:53:26;;;;;;;0.60;0.60;;;;;4.60;94520.00;;;;5035098;28;20216;-58
2023/01/09 04:55:53;;;;;;;1.23;1.20;;;;;4.60;94534.00;;;;5035147;28;20185;-58
2023/01/09 04:58:21;;;;;;;0.60;0.60;;;;;4.50;94533.00;;;;5034451;28;20703;-58
2023/01/09 05:00:49;;;;;;;0.50;0.50;;;;;4.50;94536.00;;;;5035035;28;20197;-58
2023/01/09 05:03:17;;;;;;;1.20;1.03;;;;;4.60;94539.00;;;;5034984;28;20228;-58
2023/01/09 05:05:45;;;;;;;0.70;0.70;;;;;4.40;94559.00;;;;5035197;28;20204;-58
2023/01/09 05:08:12;;;;;;;0.60;0.60;;;;;4.40;94559.00;;;;5034832;28;20266;-58
2023/01/09 05:10:39;;;;;;;0.60;0.60;;;;;4.50;94567.00;;;;5034793;28;20189;-58
2023/01/09 05:13:07;;;;;;;0.60;0.60;;;;;4.50;94578.00;;;;5035120;28;20294;-57
2023/01/09 05:15:34;;;;;;;1.00;1.00;;;;;4.40;94575.00;;;;5034761;28;20200;-58
2023/01/09 05:18:03;;;;;;;0.63;0.63;;;;;4.60;94573.00;;;;5034782;28;20216;-58
2023/01/09 05:20:30;;;;;;;0.60;0.60;;;;;4.60;94580.00;;;;5034641;28;20197;-58
2023/01/09 05:22:58;;;;;;;0.60;0.60;;;;;4.30;94581.00;;;;5034883;28;20189;-58
2023/01/09 05:25:25;;;;;;;0.60;0.60;;;;;4.30;94575.00;;;;5034624;28;20197;-59
2023/01/09 05:27:53;;;;;;;0.60;0.60;;;;;4.30;94578.00;;;;5034560;28;20710;-58
2023/01/09 05:30:21;;;;;;;0.60;0.60;;;;;4.20;94583.00;;;;5034748;28;20196;-59
2023/01/09 05:32:48;;;;;;;1.63;1.53;;;;;4.10;94590.00;;;;5034710;28;20220;-58
2023/01/09 05:35:17;;;;;;;0.50;0.50;;;;;4.20;94600.00;;;;5034607;28;20660;-58
2023/01/09 05:37:45;;;;;;;0.70;0.70;;;;;4.10;94593.00;;;;5034338;28;20289;-58
2023/01/09 05:40:13;;;;;;;0.60;0.60;;;;;4.10;94586.00;;;;5033704;28;20204;-58
2023/01/09 05:42:41;;;;;;;1.03;1.03;;;;;4.10;94606.00;;;;5034228;28;20192;-58
2023/01/09 05:45:10;;;;;;;0.60;0.60;;;;;4.10;94599.00;;;;5035171;28;20533;-58
2023/01/09 05:47:37;;;;;;;1.00;1.00;;;;;3.90;94602.00;;;;5035716;28;20224;-58
2023/01/09 05:50:05;;;;;;;0.60;0.60;;;;;3.90;94613.00;;;;5035042;28;20189;-58
2023/01/09 05:52:34;;;;;;;0.60;0.60;;;;;4.00;94616.00;;;;5035198;28;20225;-58
2023/01/09 05:55:02;;;;;;;0.73;0.73;;;;;3.90;94600.00;;;;5034511;28;20196;-58
2023/01/09 05:57:29;;;;;;;0.70;0.70;;;;;4.10;94596.00;;;;5032696;28;20277;-58
2023/01/09 05:59:57;;;;;;;0.70;0.70;;;;;4.00;94605.00;;;;5034213;28;20243;-58
2023/01/09 06:02:24;;;;;;;0.70;0.70;;;;;4.00;94610.00;;;;5033941;28;20651;-58
2023/01/09 06:04:51;;;;;;;0.50;0.50;;;;;4.00;94604.00;;;;5033355;28;20197;-58
2023/01/09 06:07:19;;;;;;;0.60;0.60;;;;;3.90;94616.00;;;;5033951;28;20267;-58
2023/01/09 06:09:48;;;;;;;0.67;0.67;;;;;4.00;94618.00;;;;5034816;28;20196;-59
2023/01/09 06:12:15;;;;;;;0.60;0.60;;;;;3.90;94623.00;;;;5033906;28;20220;-59
2023/01/09 06:14:42;;;;;;;0.70;0.70;;;;;4.00;94622.00;;;;5034473;28;20192;-58
2023/01/09 06:17:10;;;;;;;0.57;0.57;;;;;4.10;94623.00;;;;5034554;28;20559;-58
2023/01/09 06:19:38;;;;;;;0.60;0.60;;;;;4.10;94620.00;;;;5033588;28;20239;-58
2023/01/09 06:22:05;;;;;;;3.40;1.50;;;;;4.10;94614.00;;;;5033520;28;20251;-58
2023/01/09 06:24:32;;;;;;;0.60;0.60;;;;;4.00;94619.00;;;;5033706;28;20659;-59
2023/01/09 06:27:01;;;;;;;0.83;0.83;;;;;3.90;94615.00;;;;5033460;28;20691;-58
2023/01/09 06:29:28;;;;;;;0.60;0.60;;;;;4.10;94631.00;;;;5034375;28;20201;-59
2023/01/09 06:31:56;;;;;;;0.93;0.93;;;;;4.20;94616.00;;;;5033742;28;20196;-58
2023/01/09 06:34:23;;;;;;;0.60;0.60;;;;;4.10;94617.00;;;;5033885;28;20192;-59
2023/01/09 06:36:51;;;;;;;0.60;0.60;;;;;4.30;94629.00;;;;5033500;28;20583;-59
2023/01/09 06:39:18;;;;;;;0.63;0.63;;;;;4.20;94623.00;;;;5033340;28;20192;-59
2023/01/09 06:41:46;;;;;;;1.30;1.20;;;;;4.20;94629.00;;;;5033366;28;20196;-59
2023/01/09 06:44:15;;;;;;;0.60;0.60;;;;;4.20;94634.00;;;;5033602;28;20215;-58
2023/01/09 06:46:42;;;;;;;0.60;0.60;;;;;4.30;94631.00;;;;5033210;28;20213;-58
2023/01/09 06:49:10;;;;;;;1.23;1.23;;;;;4.10;94632.00;;;;5033186;28;20284;-58
2023/01/09 06:51:38;;;;;;;0.67;0.67;;;;;4.30;94648.00;;;;5033213;28;20189;-59
2023/01/09 06:54:05;;;;;;;0.60;0.60;;;;;4.30;94647.00;;;;5033213;28;20217;-59
2023/01/09 06:56:32;;;;;;;0.87;0.87;;;;;4.20;94652.00;;;;5033507;28;20228;-59
2023/01/09 06:59:00;;;;;;;1.03;1.03;;;;;4.30;94650.00;;;;5033637;28;20196;-59
2023/01/09 07:01:29;;;;;;;1.57;1.47;;;;;4.00;94650.00;;;;5033467;28;20263;-58
2023/01/09 07:03:56;;;;;;;0.60;0.60;;;;;4.10;94655.00;;;;5033080;28;20272;-60
2023/01/09 07:06:24;;;;;;;1.07;1.00;;;;;4.20;94665.00;;;;5033177;28;20212;-59
2023/01/09 07:08:51;;;;;;;0.60;0.60;;;;;4.10;94658.00;;;;5033008;28;20783;-59
2023/01/09 07:11:19;;;;;;;0.60;0.60;;;;;4.00;94661.00;;;;5033127;28;20211;-59
2023/01/09 07:13:46;;;;;;;0.67;0.67;;;;;3.90;94667.00;;;;5036102;28;20220;-59
2023/01/09 07:16:14;;;;;;;1.00;1.00;;;;;4.00;94661.00;;;;5037211;28;20199;-59
2023/01/09 07:18:42;;;;;;;1.13;1.10;;;;;4.10;94659.00;;;;5035715;28;20196;-59
2023/01/09 07:21:09;;;;;;;1.00;1.00;;;4.80;98.20;4.00;94656.00;;;;5036875;28;20193;-59
2023/01/09 07:23:36;;;;;;;0.50;0.50;;;4.80;98.10;3.90;94659.00;;;;5037188;28;20196;-59
2023/01/09 07:26:04;;;;;;;0.60;0.60;;;;;3.90;94652.00;;;;5037020;28;20189;-59
2023/01/09 07:28:31;;;;;;;0.80;0.80;;;4.80;98.50;3.80;94652.00;;;;5036835;28;20215;-59
2023/01/09 07:31:01;;;;;;;0.60;0.60;;;;;4.00;94656.00;;;;5036838;28;20192;-59
2023/01/09 07:33:28;;;;;;;0.60;0.60;;;4.80;98.80;4.00;94658.00;;;;5036650;28;20248;-59
2023/01/09 07:35:56;;;;;;;0.63;0.63;;;4.80;99.50;4.00;94646.00;;;;5037063;28;20197;-59
2023/01/09 07:38:24;;;;;;;0.80;0.80;;;4.80;98.40;3.90;94661.00;;;;5036873;28;20216;-59
2023/01/09 07:40:51;;;;;;;0.60;0.60;;;4.70;98.80;4.00;94659.00;;;;5036877;28;20196;-59
2023/01/09 07:43:18;;;;;;;0.60;0.60;;;4.90;97.50;4.10;94661.00;;;;5036614;28;20189;-59
2023/01/09 07:45:46;;;;;;;0.70;0.70;;;4.90;98.10;4.20;94665.00;;;;5036968;28;20201;-59
2023/01/09 07:48:14;;;;;;;0.77;0.77;;;;;4.10;94656.00;;;;5036511;28;20213;-59
2023/01/09 07:50:41;;;;;;;0.80;0.80;;;5.00;96.90;4.20;94673.00;;;;5036370;28;20204;-59
2023/01/09 07:53:09;;;;;;;0.77;0.77;;;5.00;96.10;4.20;94665.00;;;;5036578;28;20231;-59
2023/01/09 07:55:36;;;;;;;1.10;1.10;;;5.00;96.20;4.30;94671.00;;;;5036660;28;20286;-59
2023/01/09 07:58:03;;;;;;;0.90;0.90;;;5.10;95.60;4.30;94660.00;;;;5036325;28;20217;-59
2023/01/09 08:00:30;;;;;;;0.80;0.80;;;5.10;96.70;4.20;94667.00;;;;5036178;28;20189;-59
2023/01/09 08:02:57;;;;;;;0.60;0.60;;;5.10;97.00;4.20;94669.00;;;;5036398;28;20192;-61
2023/01/09 08:05:24;;;;;;;0.60;0.60;;;5.10;97.90;4.30;94675.00;;;;5027047;28;20202;-59
2023/01/09 08:07:51;;;;;;;0.63;0.63;;;5.10;98.00;4.30;94680.00;;;;5014600;28;20210;-60
2023/01/09 08:10:20;;;;;;;0.70;0.70;;;5.10;97.90;4.40;94691.00;;;;5032002;28;20255;-60
2023/01/09 08:12:49;;;;;;;0.67;0.67;;;5.20;96.70;4.50;94692.00;;;;5033307;28;20220;-59
2023/01/09 08:15:16;;;;;;;0.50;0.50;;;5.20;97.40;4.30;94693.00;;;;5018526;28;20193;-59
2023/01/09 08:17:46;;;;;;;0.60;0.60;;;5.20;96.50;4.40;94675.00;;;;5013227;28;20233;-59
2023/01/09 08:20:16;;;;;;;1.27;1.27;;;5.30;96.50;4.50;94693.00;;;;5013625;28;20204;-59
2023/01/09 08:22:48;;;;;;;0.90;0.90;;;5.30;97.00;4.50;94672.00;;;;5013663;28;20240;-59
2023/01/09 08:25:16;;;;;;;0.60;0.60;;;5.40;96.80;4.60;94681.00;;;;5013659;28;20234;-59
2023/01/09 08:27:44;;;;;;;0.60;0.60;;;5.40;97.30;4.60;94683.00;;;;5013477;28;20229;-59
2023/01/09 08:30:13;;;;;;;0.60;0.60;;;5.50;96.30;4.70;94681.00;;;;5013491;28;20194;-59
2023/01/09 08:32:41;;;;;;;0.53;0.53;;;5.50;94.60;4.80;94678.00;;;;5013381;28;20286;-59
2023/01/09 08:35:09;;;;;;;0.77;0.77;;;5.50;94.40;4.80;94682.00;;;;5012289;28;20246;-59
2023/01/09 08:37:36;;;;;;;0.80;0.80;;;5.50;93.60;4.80;94675.00;;;;5013201;28;20217;-59
2023/01/09 08:40:03;;;;;;;0.60;0.60;;;5.50;94.30;5.00;94682.00;;;;5013580;28;20541;-59
2023/01/09 08:48:01;;;;;;;0.53;0.53;;;5.80;91.60;5.00;94673.00;;;;5032536;28;20223;-59
2023/01/09 08:50:29;;;;;;;0.60;0.60;;;;;4.90;94676.00;;;;5033145;28;20201;-59
2023/01/09 08:52:56;;;;;;;0.50;0.50;;;5.70;91.80;4.90;94673.00;;;;5032305;28;20217;-59
2023/01/09 08:55:23;;;;;;;0.50;0.50;;;5.70;91.60;4.90;94675.00;;;;5033151;28;20202;-59
2023/01/09 08:57:51;;;;;;;0.53;0.53;;;5.70;92.50;5.00;94675.00;;;;5031199;28;20228;-59
2023/01/09 09:00:23;;;;;;;0.80;0.80;;;5.70;93.30;5.20;94664.00;;;;5031679;28;20664;-59
2023/01/09 09:02:52;;;;;;;0.87;0.87;;;5.90;93.50;5.30;94663.00;;;;5032648;28;20192;-60
2023/01/09 09:05:20;;;;;;;0.60;0.60;;;6.00;93.40;5.30;94669.00;;;;5032951;28;20614;-59
2023/01/09 09:07:48;;;;;;;0.60;0.60;;;6.00;93.40;5.30;94681.00;;;;5032517;28;20216;-60
2023/01/09 09:10:17;;;;;;;0.50;0.50;;;6.10;93.30;5.40;94693.00;;;;5032505;28;20247;-59
2023/01/09 09:12:44;;;;;;;0.60;0.60;;;;;5.40;94698.00;;;;5032866;28;20563;-59
2023/01/09 09:15:12;;;;;;;1.03;1.03;;;6.10;89.80;5.30;94692.00;;;;5032573;28;20223;-63
2023/01/09 09:17:41;;;;;;;0.90;0.90;;;6.30;90.90;5.50;94690.00;;;;5032272;28;20229;-60
2023/01/09 09:20:10;;;;;;;0.50;0.50;;;6.10;88.50;5.20;94697.00;;;;5032492;28;20239;-59
2023/01/09 09:22:38;;;;;;;0.93;0.93;;;6.10;88.60;5.40;94698.00;;;;5012591;28;20206;-59
2023/01/09 09:25:06;;;;;;;0.60;0.60;;;6.10;91.70;5.50;94691.00;;;;5012418;28;20230;-59
2023/01/09 09:27:35;;;;;;;0.60;0.60;;;6.30;89.70;5.40;94697.00;;;;5012980;28;20340;-59
2023/01/09 09:30:02;;;;;;;0.70;0.70;;;6.30;90.40;5.70;94708.00;;;;5031700;28;20200;-59
2023/01/09 09:32:31;;;;;;;0.70;0.70;;;6.40;90.20;5.60;94707.00;;;;5032444;28;20193;-59
2023/01/09 09:34:59;;;;;;;0.60;0.60;;;6.30;88.80;5.50;94709.00;;;;5029547;28;20730;-59
2023/01/09 09:37:26;;;;;;;0.60;0.60;;;6.40;89.40;5.60;94717.00;;;;5032212;28;20220;-59
2023/01/09 09:39:53;;;;;;;0.83;0.83;;;6.40;89.20;5.50;94714.00;;;;5031983;28;20275;-59
2023/01/09 09:45:43;;;;;;;0.70;0.70;;;6.30;91.10;5.60;94709.00;;;;5031343;28;20206;-57
2023/01/09 09:48:26;;;;;;;18.47;0.90;;;6.30;90.40;5.60;94697.00;;;;5032108;28;20263;-58
2023/01/09 09:51:21;;;;;;;0.60;0.60;;;6.40;89.70;5.80;94703.00;;;;5022748;28;20664;-58
2023/01/09 09:53:58;;;;;;;0.80;0.80;;;6.60;88.70;5.80;94716.00;;;;5016529;28;20270;-58
2023/01/09 09:56:32;;;;;;;0.60;0.60;;;6.50;89.30;5.80;94713.00;;;;5029569;28;20213;-59
2023/01/09 09:59:04;;;;;;;0.70;0.70;;;6.50;88.80;5.90;94704.00;;;;5031917;28;20273;-59
2023/01/09 10:01:39;;;;;;;2.77;2.30;;;6.60;89.40;5.90;94715.00;;;;5031193;28;20201;-59
2023/01/09 10:04:12;;;;;;;1.00;1.00;;;6.60;89.20;5.90;94712.00;;;;5032370;28;20206;-59
2023/01/09 10:06:47;;;;;;;1.23;1.13;;;6.70;88.60;5.90;94722.00;;;;5011034;28;20700;-58
2023/01/09 10:09:25;;;;;;;0.53;0.53;;;6.80;87.70;6.00;94726.00;;;;5012643;28;20192;-58
2023/01/09 10:11:59;;;;;;;0.70;0.70;;;6.70;87.90;5.80;94725.00;;;;5026660;28;20272;-58
2023/01/09 10:14:27;;;;;;;1.17;1.07;;;6.40;88.70;5.40;94727.00;;;;5031315;28;20206;-58
2023/01/09 10:17:22;;;;;;;0.90;0.90;;;6.40;90.50;5.70;94704.00;;;;5029747;28;20215;-59
2023/01/09 10:20:19;;;;;;;1.80;1.27;;;6.40;89.60;5.60;94712.00;;;;5015576;28;20188;-59
2023/01/09 10:22:55;;;;;;;0.50;0.50;;;;;5.80;94703.00;;;;5011404;28;20620;-59
2023/01/09 10:25:29;;;;;;;0.60;0.60;;;;;5.80;94712.00;;;;5025764;28;20201;-59
2023/01/09 10:28:13;;;;;;;0.60;0.60;;;;;6.00;94695.00;;;;5031526;28;20681;-59
2023/01/09 10:30:44;;;;;;;0.93;0.93;;;;;5.70;94702.00;;;;5030545;28;20672;-59
2023/01/09 10:33:33;;;;;;;0.73;0.73;;;6.50;90.10;5.80;94681.00;;;;5031007;28;20206;-58
2023/01/09 10:36:33;;;;;;;0.70;0.70;;;6.60;88.10;5.90;94678.00;;;;5013751;28;20194;-60
2023/01/09 10:39:07;;;;;;;1.17;1.07;;;;;5.70;94683.00;;;;5028131;28;20193;-59
2023/01/09 10:41:37;;;;;;;0.60;0.60;;;;;5.80;94676.00;;;;5030841;28;20791;-59
2023/01/09 10:44:10;;;;;;;0.50;0.50;;;;;5.70;94692.00;;;;5012744;28;20191;-59
2023/01/09 10:46:45;;;;;;;2.00;1.33;;;6.50;87.20;5.70;94681.00;;;;5011408;28;20229;-59
2023/01/09 10:49:16;;;;;;;0.53;0.53;;;;;5.90;94680.00;;;;5025992;28;20220;-59
2023/01/09 10:51:47;;;;;;;3.80;2.10;;;;;5.80;94690.00;;;;5029854;28;20235;-59
2023/01/09 10:54:20;;;;;;;0.70;0.70;;;6.60;87.90;5.90;94689.00;;;;5030210;28;20256;-58
2023/01/09 10:56:55;;;;;;;0.50;0.50;;;6.70;89.00;6.00;94684.00;;;;5031243;28;20248;-58
2023/01/09 10:59:22;;;;;;;0.50;0.50;;;6.70;89.70;6.10;94673.00;;;;5030449;28;20548;-59
2023/01/09 11:01:50;;;;;;;1.33;1.23;;;6.90;86.60;6.10;94672.00;;;;5031016;28;20898;-59
2023/01/09 11:04:24;;;;;;;0.60;0.60;;;;;6.50;94665.00;;;;5030642;28;20208;-58
2023/01/09 11:06:56;;;;;;;0.43;0.43;;;;;6.90;94663.00;;;;5012365;28;20224;-59
2023/01/09 11:09:25;;;;;;;0.53;0.53;;;;;6.70;94654.00;;;;5011090;28;20528;-59
2023/01/09 11:11:52;;;;;;;5.50;0.77;;;;;7.00;94656.00;;;;5011086;28;20738;-59
2023/01/09 11:14:30;;;;;;;0.60;0.60;;;7.80;83.30;7.30;94656.00;;;;5010425;28;20584;-59
2023/01/09 11:16:59;;;;;;;0.80;0.80;;;;;7.60;94647.00;;;;5026939;28;20694;-59
2023/01/09 11:19:27;;;;;;;0.57;0.57;;;8.70;80.90;8.30;94658.00;;;;5030173;28;20597;-59
2023/01/09 11:22:09;;;;;;;0.70;0.70;;;9.00;77.50;8.40;94650.00;;;;5031248;28;20192;-59
2023/01/09 11:24:37;;;;;;;2.87;1.07;;;8.90;78.10;8.70;94620.00;;;;5011069;28;20193;-59
2023/01/09 11:27:24;;;;;;;0.77;0.77;;;9.30;75.50;8.70;94658.00;;;;5018538;28;20224;-59
2023/01/09 11:30:25;;;;;;;0.80;0.80;;;;;8.40;94663.00;;;;5030458;28;20267;-59
2023/01/09 11:32:53;;;;;;;1.20;1.10;;;;;8.10;94640.00;;;;5030513;28;20647;-59
2023/01/09 11:35:27;;;;;;;0.60;0.60;;;;;8.10;94660.00;;;;5010677;28;20217;-59
2023/01/09 11:38:11;;;;;;;0.53;0.53;;;7.90;67.30;6.90;94658.00;;;;5023849;28;20225;-58
2023/01/09 11:40:50;;;;;;;0.80;0.80;;;7.70;70.70;7.00;94655.00;;;;5029741;28;20197;-59
2023/01/09 11:43:29;;;;;;;0.60;0.60;;;;;6.60;94658.00;;;;5030089;28;20189;-58
2023/01/09 11:45:58;;;;;;;0.80;0.80;;;7.30;71.50;6.60;94648.00;;;;5010440;28;20219;-59
2023/01/09 11:48:39;;;;;;;0.70;0.70;;;7.50;70.70;6.80;94657.00;;;;5010577;28;20571;-59
2023/01/09 11:51:19;;;;;;;0.60;0.60;;;;;6.80;94656.00;;;;5023692;28;20192;-59
2023/01/09 11:53:57;;;;;;;0.50;0.50;;;;;6.70;94651.00;;;;5021478;28;20300;-58
2023/01/09 11:56:26;;;;;;;5.53;2.10;;;;;6.60;94661.00;;;;5027070;28;20226;-59
2023/01/09 11:58:53;;;;;;;0.63;0.63;;;;;6.70;94663.00;;;;5030315;28;20550;-59
2023/01/09 12:01:47;;;;;;;2.10;1.73;;;;;6.40;94667.00;;;;5034118;28;20199;-59
2023/01/09 12:04:28;;;;;;;1.70;1.30;;;;;6.40;94693.00;;;;5014177;28;20200;-59
2023/01/09 12:07:18;;;;;;;0.60;0.60;;;;;6.20;94678.00;;;;5031432;28;20333;-58
2023/01/09 12:09:54;;;;;;;0.50;0.50;;;;;6.30;94674.00;;;;5013914;28;20193;-59
2023/01/09 12:12:30;;;;;;;0.53;0.53;;;;;6.50;94669.00;;;;5014268;28;20603;-59
2023/01/09 12:15:12;;;;;;;0.50;0.50;;;;;6.40;94683.00;;;;5013773;28;20215;-59
2023/01/09 12:17:58;;;;;;;0.60;0.60;;;;;6.00;94679.00;;;;5013523;28;20226;-59
2023/01/09 12:20:38;;;;;;;2.57;1.37;;;;;6.20;94683.00;;;;5030997;28;20199;-59
2023/01/09 12:23:19;;;;;;;0.50;0.50;;;;;6.30;94679.00;;;;5032923;28;20207;-59
2023/01/09 12:25:57;;;;;;;0.50;0.50;;;;;6.20;94682.00;;;;5014215;28;20568;-59
2023/01/09 12:28:42;;;;;;;0.80;0.80;;;;;6.00;94685.00;;;;5013402;28;20228;-59
2023/01/09 12:31:22;;;;;;;0.60;0.60;;;;;6.10;94679.00;;;;5013394;28;20248;-59
2023/01/09 12:33:57;;;;;;;0.60;0.60;;;;;6.30;94676.00;;;;5029568;28;20195;-59